createdAt,value
2022-12-29T00:00:14.643Z,20.77
2022-12-29T00:02:43.374Z,21.00
2022-12-29T00:05:11.993Z,21.40
2022-12-29T00:07:39.938Z,21.10
2022-12-29T00:10:09.101Z,22.63
2022-12-29T00:12:56.800Z,26.98
2022-12-29T00:15:40.782Z,25.73
2022-12-29T00:18:11.975Z,22.85
2022-12-29T00:20:58.712Z,24.77
2022-12-29T00:23:53.236Z,30.38
2022-12-29T00:26:39.436Z,22.67
2022-12-29T00:34:59.629Z,24.88
2022-12-29T00:37:47.520Z,17.45
2022-12-29T00:40:38.588Z,20.38
2022-12-29T00:43:25.020Z,20.05
2022-12-29T00:45:53.410Z,22.15
2022-12-29T00:48:41.698Z,23.70
2022-12-29T00:51:10.171Z,21.20
2022-12-29T00:53:38.011Z,21.50
2022-12-29T00:56:07.519Z,25.60
2022-12-29T00:58:35.771Z,25.77
2022-12-29T01:01:05.207Z,28.55
2022-12-29T01:03:38.158Z,36.25
2022-12-29T01:06:11.103Z,27.20
2022-12-29T01:08:39.283Z,27.13
2022-12-29T01:11:11.800Z,22.95
2022-12-29T01:13:44.873Z,22.98
2022-12-29T01:16:15.155Z,23.42
2022-12-29T01:18:43.854Z,26.08
2022-12-29T01:21:11.927Z,19.90
2022-12-29T01:23:40.656Z,20.83
2022-12-29T01:26:15.631Z,19.30
2022-12-29T01:28:45.240Z,21.05
2022-12-29T01:31:14.815Z,16.38
2022-12-29T01:33:43.631Z,16.92
2022-12-29T01:36:14.727Z,21.50
2022-12-29T01:38:42.666Z,14.40
2022-12-29T01:41:11.960Z,20.13
2022-12-29T01:43:51.647Z,27.17
2022-12-29T01:46:35.898Z,21.10
2022-12-29T01:49:09.930Z,20.17
2022-12-29T01:52:04.547Z,15.25
2022-12-29T01:54:38.047Z,21.67
2022-12-29T01:57:08.762Z,13.88
2022-12-29T01:59:39.745Z,14.95
2022-12-29T02:02:11.703Z,14.57
2022-12-29T02:04:41.861Z,14.25
2022-12-29T02:07:16.576Z,19.80
2022-12-29T02:09:54.477Z,17.77
2022-12-29T02:12:22.893Z,16.55
2022-12-29T02:14:53.632Z,12.75
2022-12-29T02:17:27.340Z,16.98
2022-12-29T02:20:20.076Z,16.25
2022-12-29T02:23:00.128Z,16.63
2022-12-29T02:26:08.039Z,17.63
2022-12-29T02:28:51.549Z,20.50
2022-12-29T02:31:30.505Z,15.20
2022-12-29T02:34:17.543Z,20.42
2022-12-29T02:37:27.769Z,20.05
2022-12-29T02:40:20.143Z,18.90
2022-12-29T02:42:53.355Z,23.77
2022-12-29T02:45:24.416Z,22.23
2022-12-29T02:48:14.636Z,16.05
2022-12-29T02:50:50.067Z,18.20
2022-12-29T02:53:38.894Z,21.85
2022-12-29T02:56:07.343Z,20.65
2022-12-29T02:58:35.795Z,18.55
2022-12-29T03:01:10.716Z,16.02
2022-12-29T03:04:27.323Z,21.05
2022-12-29T03:07:10.324Z,17.70
2022-12-29T03:10:16.058Z,20.45
2022-12-29T03:13:21.331Z,18.90
2022-12-29T03:16:05.791Z,19.42
2022-12-29T03:18:43.206Z,21.70
2022-12-29T03:21:11.085Z,20.23
2022-12-29T03:23:39.307Z,21.23
2022-12-29T03:26:09.874Z,19.88
2022-12-29T03:28:58.618Z,19.23
2022-12-29T03:31:30.302Z,20.60
2022-12-29T03:33:59.505Z,22.75
2022-12-29T03:36:34.208Z,22.63
2022-12-29T03:39:05.757Z,20.35
2022-12-29T03:41:34.235Z,23.60
2022-12-29T03:44:07.766Z,21.85
2022-12-29T03:46:36.292Z,22.20
2022-12-29T03:49:04.818Z,19.73
2022-12-29T03:51:33.271Z,26.23
2022-12-29T03:54:03.951Z,23.20
2022-12-29T03:56:36.982Z,17.77
2022-12-29T03:59:11.360Z,21.67
2022-12-29T04:01:43.722Z,24.92
2022-12-29T04:04:11.982Z,17.40
2022-12-29T04:06:40.023Z,18.33
2022-12-29T04:09:11.067Z,24.23
2022-12-29T04:11:45.172Z,22.50
2022-12-29T04:14:13.606Z,26.83
2022-12-29T04:16:42.209Z,23.48
2022-12-29T04:19:10.343Z,23.63
2022-12-29T04:21:42.012Z,24.63
2022-12-29T04:24:10.579Z,21.08
2022-12-29T04:26:43.089Z,23.65
2022-12-29T04:29:28.285Z,20.48
2022-12-29T04:32:26.442Z,19.20
2022-12-29T04:34:56.317Z,20.30
2022-12-29T04:37:24.592Z,25.05
2022-12-29T04:39:53.373Z,26.13
2022-12-29T04:42:21.271Z,22.98
2022-12-29T04:44:50.248Z,21.35
2022-12-29T04:47:38.254Z,24.08
2022-12-29T04:50:25.916Z,28.90
2022-12-29T04:53:07.392Z,26.27
2022-12-29T04:55:35.848Z,20.60
2022-12-29T04:58:03.833Z,22.98
2022-12-29T05:00:34.419Z,24.20
2022-12-29T05:03:02.601Z,22.85
2022-12-29T05:05:33.665Z,24.52
2022-12-29T05:08:03.047Z,26.27
2022-12-29T05:10:32.571Z,22.85
2022-12-29T05:13:05.168Z,27.25
2022-12-29T05:15:33.301Z,25.42
2022-12-29T05:18:02.148Z,21.23
2022-12-29T05:20:31.211Z,27.27
2022-12-29T05:22:59.434Z,28.33
2022-12-29T05:25:27.412Z,26.75
2022-12-29T05:28:04.052Z,26.20
2022-12-29T05:30:48.928Z,29.88
2022-12-29T05:33:18.709Z,32.95
2022-12-29T05:35:49.493Z,36.17
2022-12-29T05:38:17.503Z,33.97
2022-12-29T05:40:47.013Z,32.30
2022-12-29T05:43:39.457Z,33.95
2022-12-29T05:46:34.670Z,30.60
2022-12-29T05:49:12.225Z,32.40
2022-12-29T05:52:09.549Z,27.40
2022-12-29T05:54:37.621Z,31.02
2022-12-29T05:57:14.023Z,30.70
2022-12-29T05:59:45.082Z,31.33
2022-12-29T06:02:13.114Z,27.55
2022-12-29T06:04:44.922Z,26.42
2022-12-29T06:07:12.996Z,28.48
2022-12-29T06:09:44.406Z,27.95
2022-12-29T06:12:12.420Z,25.05
2022-12-29T06:14:42.625Z,23.25
2022-12-29T06:17:10.804Z,24.40
2022-12-29T06:19:39.174Z,18.23
2022-12-29T06:22:08.753Z,22.08
2022-12-29T06:24:38.212Z,24.45
2022-12-29T06:27:06.572Z,18.55
2022-12-29T06:29:38.245Z,23.75
2022-12-29T06:32:07.660Z,22.40
2022-12-29T06:34:37.178Z,22.52
2022-12-29T06:37:05.230Z,19.15
2022-12-29T06:39:36.295Z,23.00
2022-12-29T06:42:11.701Z,21.95
2022-12-29T06:44:42.798Z,22.25
2022-12-29T06:47:11.880Z,21.50
2022-12-29T06:49:39.942Z,21.25
2022-12-29T06:52:12.957Z,21.55
2022-12-29T06:54:46.020Z,20.25
2022-12-29T06:57:15.542Z,24.50
2022-12-29T06:59:43.676Z,29.67
2022-12-29T07:02:19.480Z,24.67
2022-12-29T07:07:15.831Z,23.80
2022-12-29T07:09:45.421Z,25.77
2022-12-29T07:12:15.245Z,24.08
2022-12-29T07:14:43.767Z,23.15
2022-12-29T07:17:11.872Z,25.25
2022-12-29T07:19:39.870Z,23.02
2022-12-29T07:22:08.452Z,25.52
2022-12-29T07:24:36.570Z,29.45
2022-12-29T07:27:05.367Z,24.83
2022-12-29T07:29:41.056Z,32.22
2022-12-29T07:32:10.648Z,30.65
2022-12-29T07:34:41.284Z,28.63
2022-12-29T07:37:09.316Z,31.98
2022-12-29T07:39:37.914Z,32.47
2022-12-29T07:42:09.636Z,31.58
2022-12-29T07:44:59.488Z,24.95
2022-12-29T07:47:57.796Z,36.83
2022-12-29T07:50:53.816Z,30.15
2022-12-29T07:53:22.872Z,26.80
2022-12-29T07:55:50.846Z,28.55
2022-12-29T07:58:43.179Z,22.80
2022-12-29T08:01:34.112Z,25.10
2022-12-29T08:04:14.253Z,27.92
2022-12-29T08:06:49.652Z,27.88
2022-12-29T08:09:28.691Z,27.23
2022-12-29T08:12:01.784Z,33.28
2022-12-29T08:14:33.028Z,29.40
2022-12-29T08:17:18.885Z,37.92
2022-12-29T08:19:51.355Z,36.10
2022-12-29T08:22:30.910Z,39.28
2022-12-29T08:25:09.765Z,34.90
2022-12-29T08:27:40.065Z,36.70
2022-12-29T08:30:11.463Z,37.35
2022-12-29T08:32:40.912Z,31.95
2022-12-29T08:35:09.375Z,29.63
2022-12-29T08:37:40.544Z,28.20
2022-12-29T08:40:09.409Z,22.70
2022-12-29T08:42:37.416Z,17.83
2022-12-29T08:45:05.971Z,23.13
2022-12-29T08:47:34.155Z,17.88
2022-12-29T08:50:02.484Z,19.48
2022-12-29T08:52:33.180Z,19.33
2022-12-29T08:55:01.108Z,23.60
2022-12-29T08:57:29.355Z,17.38
2022-12-29T09:00:09.157Z,19.85
2022-12-29T09:02:41.420Z,17.33
2022-12-29T09:05:10.877Z,18.63
2022-12-29T09:07:38.929Z,16.70
2022-12-29T09:10:18.748Z,18.90
2022-12-29T09:12:47.593Z,22.13
2022-12-29T09:15:16.676Z,15.68
2022-12-29T09:17:45.109Z,22.90
2022-12-29T09:20:17.427Z,19.33
2022-12-29T09:22:45.825Z,17.33
2022-12-29T09:25:14.269Z,14.93
2022-12-29T09:27:45.097Z,17.25
2022-12-29T09:30:15.523Z,19.85
2022-12-29T09:32:50.719Z,12.75
2022-12-29T09:35:21.535Z,14.98
2022-12-29T09:37:49.581Z,15.85
2022-12-29T09:40:34.998Z,15.95
2022-12-29T09:43:30.998Z,19.10
2022-12-29T09:46:43.561Z,16.17
2022-12-29T09:49:51.058Z,12.82
2022-12-29T09:52:36.624Z,15.35
2022-12-29T09:55:14.170Z,13.18
2022-12-29T09:57:58.419Z,17.60
2022-12-29T10:00:41.432Z,17.50
2022-12-29T10:03:19.024Z,16.17
2022-12-29T10:06:00.755Z,19.05
2022-12-29T10:08:45.891Z,18.92
2022-12-29T10:11:19.503Z,18.15
2022-12-29T10:13:56.661Z,19.98
2022-12-29T10:16:34.351Z,19.23
2022-12-29T10:19:32.939Z,18.42
2022-12-29T10:22:24.456Z,18.75
2022-12-29T10:24:56.520Z,18.65
2022-12-29T10:27:24.505Z,15.57
2022-12-29T10:30:02.352Z,20.25
2022-12-29T10:33:02.457Z,14.15
2022-12-29T10:35:40.455Z,17.98
2022-12-29T10:38:23.855Z,54.30
2022-12-29T10:41:12.023Z,17.83
2022-12-29T10:43:48.310Z,14.88
2022-12-29T10:46:24.979Z,14.95
2022-12-29T10:48:52.904Z,22.55
2022-12-29T10:51:40.895Z,21.02
2022-12-29T10:54:14.345Z,19.10
2022-12-29T10:57:26.640Z,19.50
2022-12-29T11:03:46.999Z,20.33
2022-12-29T11:06:24.886Z,18.63
2022-12-29T11:08:58.983Z,16.73
2022-12-29T11:11:30.208Z,14.27
2022-12-29T11:14:19.454Z,21.02
2022-12-29T11:17:04.098Z,16.48
2022-12-29T11:22:47.965Z,19.48
2022-12-29T11:25:15.846Z,21.52
2022-12-29T11:27:46.414Z,22.25
2022-12-29T11:30:25.270Z,17.40
2022-12-29T11:32:56.734Z,22.67
2022-12-29T11:35:39.960Z,21.95
2022-12-29T11:38:23.562Z,16.23
2022-12-29T11:40:51.660Z,23.52
2022-12-29T11:43:28.296Z,22.75
2022-12-29T11:45:58.067Z,15.00
2022-12-29T11:48:27.117Z,16.73
2022-12-29T11:50:56.402Z,13.75
2022-12-29T11:53:24.991Z,15.63
2022-12-29T11:56:00.391Z,14.77
2022-12-29T11:58:35.293Z,12.00
2022-12-29T12:01:22.357Z,11.98
2022-12-29T12:04:08.644Z,14.13
2022-12-29T12:09:23.821Z,9.30
2022-12-29T12:11:54.988Z,16.83
2022-12-29T12:14:42.312Z,10.43
2022-12-29T12:17:41.094Z,11.48
2022-12-29T12:20:23.180Z,11.48
2022-12-29T12:23:15.443Z,12.75
2022-12-29T12:25:48.237Z,18.77
2022-12-29T12:28:37.941Z,21.80
2022-12-29T12:31:07.649Z,12.38
2022-12-29T12:33:42.755Z,14.10
2022-12-29T12:36:47.923Z,11.98
2022-12-29T12:39:28.114Z,11.27
2022-12-29T12:42:14.523Z,8.10
2022-12-29T12:45:06.412Z,15.80
2022-12-29T12:47:48.877Z,12.65
2022-12-29T12:50:48.453Z,17.90
2022-12-29T12:53:27.392Z,16.55
2022-12-29T12:56:20.894Z,11.95
2022-12-29T12:59:22.129Z,13.25
2022-12-29T13:02:16.528Z,16.95
2022-12-29T13:04:54.526Z,15.68
2022-12-29T13:07:57.227Z,18.02
2022-12-29T13:10:34.024Z,12.55
2022-12-29T13:13:13.778Z,15.57
2022-12-29T13:15:49.694Z,15.10
2022-12-29T13:18:38.306Z,17.20
2022-12-29T13:21:17.116Z,18.38
2022-12-29T13:23:53.328Z,12.68
2022-12-29T13:26:23.894Z,13.60
2022-12-29T13:28:56.929Z,15.40
2022-12-29T13:31:43.472Z,9.27
2022-12-29T13:36:54.613Z,13.80
2022-12-29T13:39:28.682Z,11.25
2022-12-29T13:41:57.184Z,19.17
2022-12-29T13:44:40.041Z,14.57
2022-12-29T13:47:28.786Z,16.15
2022-12-29T13:49:58.701Z,13.80
2022-12-29T13:52:33.342Z,17.27
2022-12-29T13:55:25.576Z,12.55
2022-12-29T13:57:55.352Z,17.30
2022-12-29T14:00:24.486Z,13.23
2022-12-29T14:03:30.180Z,20.08
2022-12-29T14:06:25.367Z,22.70
2022-12-29T14:08:56.143Z,21.75
2022-12-29T14:11:30.183Z,22.55
2022-12-29T14:13:57.958Z,28.90
2022-12-29T14:16:35.413Z,20.70
2022-12-29T14:19:21.222Z,19.90
2022-12-29T14:22:03.855Z,19.17
2022-12-29T14:24:35.822Z,25.42
2022-12-29T14:27:12.095Z,26.45
2022-12-29T14:29:40.590Z,23.33
2022-12-29T14:32:27.218Z,22.60
2022-12-29T14:34:56.158Z,20.48
2022-12-29T14:37:28.641Z,18.48
2022-12-29T14:40:23.335Z,16.98
2022-12-29T14:42:54.054Z,17.90
2022-12-29T14:45:22.000Z,24.50
2022-12-29T14:47:51.986Z,20.80
2022-12-29T14:50:38.147Z,26.48
2022-12-29T14:53:07.350Z,24.77
2022-12-29T14:55:37.939Z,19.50
2022-12-29T14:58:13.585Z,19.92
2022-12-29T15:00:44.822Z,19.98
2022-12-29T15:03:28.951Z,17.15
2022-12-29T15:06:09.716Z,18.05
2022-12-29T15:09:02.586Z,19.38
2022-12-29T15:11:38.831Z,16.35
2022-12-29T15:14:36.848Z,18.70
2022-12-29T15:17:31.657Z,17.45
2022-12-29T15:20:32.718Z,21.60
2022-12-29T15:23:14.238Z,16.73
2022-12-29T15:26:13.239Z,18.42
2022-12-29T15:29:01.658Z,18.17
2022-12-29T15:31:31.155Z,17.90
2022-12-29T15:34:20.499Z,19.80
2022-12-29T15:36:59.448Z,16.73
2022-12-29T15:39:32.821Z,14.23
2022-12-29T15:42:15.157Z,19.55
2022-12-29T15:44:44.390Z,18.17
2022-12-29T15:47:31.053Z,19.63
2022-12-29T15:50:25.877Z,18.98
2022-12-29T15:53:53.811Z,17.92
2022-12-29T15:56:35.781Z,15.48
2022-12-29T15:59:29.255Z,17.80
2022-12-29T16:01:58.058Z,17.27
2022-12-29T16:07:42.903Z,17.23
2022-12-29T16:10:41.705Z,13.70
2022-12-29T16:13:25.411Z,17.80
2022-12-29T16:15:56.202Z,17.15
2022-12-29T16:18:38.436Z,19.20
2022-12-29T16:21:07.450Z,18.27
2022-12-29T16:23:45.701Z,20.05
2022-12-29T16:26:37.090Z,15.35
2022-12-29T20:43:29.739Z,22.00
2022-12-29T20:45:58.896Z,21.63
2022-12-29T20:48:28.021Z,14.38
2022-12-29T20:50:59.920Z,15.40
2022-12-29T20:53:28.838Z,18.20
2022-12-29T20:56:18.979Z,30.08
2022-12-29T20:59:25.819Z,21.73
2022-12-29T21:01:52.454Z,13.50
2022-12-29T21:04:56.952Z,14.90
2022-12-29T21:07:20.333Z,18.02
2022-12-29T21:09:49.608Z,15.45
2022-12-29T21:12:17.665Z,12.88
2022-12-29T21:14:52.781Z,21.52
2022-12-29T21:17:20.810Z,20.52
2022-12-29T21:19:52.789Z,12.27
2022-12-29T21:22:56.780Z,12.60
2022-12-29T21:25:26.241Z,11.98
2022-12-29T21:27:55.407Z,15.15
2022-12-29T21:30:25.655Z,13.13
2022-12-29T21:32:54.816Z,11.73
2022-12-29T21:35:24.924Z,10.98
2022-12-29T21:37:57.103Z,10.40
2022-12-29T21:40:36.580Z,13.43
2022-12-29T21:43:07.160Z,11.65
2022-12-29T21:45:35.303Z,11.30
2022-12-29T21:48:24.478Z,12.32
2022-12-29T21:51:16.168Z,13.23
2022-12-29T21:54:21.920Z,11.32
2022-12-29T21:56:49.695Z,11.27
2022-12-29T21:59:40.069Z,16.02
2022-12-29T22:02:42.452Z,9.13
2022-12-29T22:05:34.402Z,13.25
2022-12-29T22:08:45.652Z,14.48
2022-12-29T22:11:33.313Z,13.88
2022-12-29T22:17:14.172Z,16.90
2022-12-29T22:19:43.244Z,15.60
2022-12-29T22:22:13.789Z,11.57
2022-12-29T22:24:42.503Z,12.50
2022-12-29T22:27:10.817Z,14.68
2022-12-29T22:29:41.155Z,13.38
2022-12-29T22:32:09.999Z,18.40
2022-12-29T22:34:40.340Z,13.43
2022-12-29T22:37:13.041Z,14.38
2022-12-29T22:39:41.179Z,17.25
2022-12-29T22:42:09.709Z,14.65
2022-12-29T22:44:40.437Z,16.10
2022-12-29T22:47:09.036Z,15.35
2022-12-29T22:49:37.100Z,12.90
2022-12-29T22:52:05.866Z,13.05
2022-12-29T22:54:34.204Z,12.32
2022-12-29T22:57:02.747Z,12.05
2022-12-29T22:59:31.019Z,14.75
2022-12-29T23:01:58.984Z,11.18
2022-12-29T23:07:16.167Z,11.27
2022-12-29T23:09:44.656Z,13.70
2022-12-29T23:12:13.280Z,17.38
2022-12-29T23:14:41.265Z,13.20
2022-12-29T23:17:09.111Z,15.55
2022-12-29T23:19:36.972Z,14.93
2022-12-29T23:22:04.821Z,16.40
2022-12-29T23:24:32.696Z,13.65
2022-12-29T23:27:01.566Z,19.83
2022-12-29T23:29:30.695Z,24.27
2022-12-29T23:32:19.840Z,22.58
2022-12-29T23:34:48.651Z,27.35
2022-12-29T23:37:16.936Z,21.73
2022-12-29T23:39:45.750Z,22.77
2022-12-29T23:42:13.566Z,25.20
2022-12-29T23:44:41.588Z,20.02
2022-12-29T23:47:11.300Z,18.63
2022-12-29T23:49:39.162Z,13.63
2022-12-29T23:52:07.104Z,19.42
2022-12-29T23:54:36.266Z,13.60
2022-12-29T23:57:06.314Z,13.85
2022-12-29T23:59:34.206Z,13.85
